sensor_id;sensor_type;location;lat;lon;timestamp;pressure;altitude;pressure_sealevel;temperature;humidity
57248;BME280;55809;46.618;10.764;2022-11-20T06:47:33;92328.13;;;2.45;62.06
57248;BME280;55809;46.618;10.764;2022-11-20T06:50:00;92338.53;;;2.53;61.67
57248;BME280;55809;46.618;10.764;2022-11-20T06:52:27;92249.53;;;1.94;61.99
57248;BME280;55809;46.618;10.764;2022-11-20T06:54:54;92349.25;;;2.61;62.31
57248;BME280;55809;46.618;10.764;2022-11-20T06:57:22;92332.84;;;2.58;62.80
57248;BME280;55809;46.618;10.764;2022-11-20T06:59:49;92345.47;;;2.62;61.99
57248;BME280;55809;46.618;10.764;2022-11-20T07:02:16;92365.09;;;2.80;62.10
57248;BME280;55809;46.618;10.764;2022-11-20T07:04:46;92332.19;;;2.65;61.69
57248;BME280;55809;46.618;10.764;2022-11-20T07:07:13;92326.41;;;2.59;60.85
57248;BME280;55809;46.618;10.764;2022-11-20T07:09:40;92358.38;;;2.90;61.39
57248;BME280;55809;46.618;10.764;2022-11-20T07:12:08;92372.16;;;2.99;61.49
57248;BME280;55809;46.618;10.764;2022-11-20T07:14:35;92359.47;;;2.89;62.09
57248;BME280;55809;46.618;10.764;2022-11-20T07:17:02;92365.59;;;2.93;61.31
57248;BME280;55809;46.618;10.764;2022-11-20T07:19:29;92346.03;;;2.78;61.17
57248;BME280;55809;46.618;10.764;2022-11-20T07:21:58;92311.06;;;2.49;61.86
57248;BME280;55809;46.618;10.764;2022-11-20T07:24:25;92341.63;;;2.59;61.47
57248;BME280;55809;46.618;10.764;2022-11-20T07:26:52;92343.59;;;2.66;61.77
57248;BME280;55809;46.618;10.764;2022-11-20T07:29:19;92309.84;;;2.43;61.94
57248;BME280;55809;46.618;10.764;2022-11-20T07:31:46;92358.56;;;2.74;62.12
57248;BME280;55809;46.618;10.764;2022-11-20T07:34:13;92312.16;;;2.45;61.72
57248;BME280;55809;46.618;10.764;2022-11-20T07:36:40;92377.44;;;2.95;60.81
57248;BME280;55809;46.618;10.764;2022-11-20T07:39:09;92401.81;;;3.27;60.40
57248;BME280;55809;46.618;10.764;2022-11-20T07:41:36;92378.47;;;3.17;59.72
57248;BME280;55809;46.618;10.764;2022-11-20T07:44:03;92394.63;;;3.35;57.80
57248;BME280;55809;46.618;10.764;2022-11-20T07:46:31;92395.00;;;3.34;57.24
57248;BME280;55809;46.618;10.764;2022-11-20T07:48:58;92276.84;;;2.51;56.46
57248;BME280;55809;46.618;10.764;2022-11-20T07:51:25;92338.19;;;2.92;58.44
57248;BME280;55809;46.618;10.764;2022-11-20T07:53:53;92392.94;;;3.16;60.11
57248;BME280;55809;46.618;10.764;2022-11-20T07:56:21;92378.78;;;3.12;58.52
57248;BME280;55809;46.618;10.764;2022-11-20T07:58:49;92419.00;;;3.34;60.37
57248;BME280;55809;46.618;10.764;2022-11-20T08:01:16;92384.06;;;3.09;61.14
57248;BME280;55809;46.618;10.764;2022-11-20T08:03:43;92366.47;;;3.00;60.61
57248;BME280;55809;46.618;10.764;2022-11-20T08:06:10;92367.50;;;2.92;60.93
57248;BME280;55809;46.618;10.764;2022-11-20T08:08:37;92405.22;;;3.28;61.55
57248;BME280;55809;46.618;10.764;2022-11-20T08:11:06;92369.53;;;3.02;62.04
57248;BME280;55809;46.618;10.764;2022-11-20T08:35:17;92411.81;;;4.27;58.06
57248;BME280;55809;46.618;10.764;2022-11-20T08:37:47;92355.59;;;4.05;57.85
57248;BME280;55809;46.618;10.764;2022-11-20T15:59:01;92173.44;;;5.73;58.27
57248;BME280;55809;46.618;10.764;2022-11-20T16:07:11;92255.22;;;6.24;47.00
57248;BME280;55809;46.618;10.764;2022-11-20T16:30:02;92287.00;;;5.75;48.55
